M I D A S
Marine Information and Data Acquisition System
Tripno 450 of the Zeeleeuw from 2003-03-21 07:10:06 to 2003-03-21 13:16:12
Back to CruiseResearch ActivitiesStationsMapUnderway DataData graphs

EquipmentUnitsComments
TimeDGPSUTC
LatitudeDGPSDM.mWGS84
LongitudeDGPSDM.mWGS84
SpeedMeteo Stationm/sRelative wind speed
DirectionMeteo StationdegRelative wind direction
TemperatureMeteo Stationdeg CelciusAir temperature
PressureMeteo StationPaAtmospheric pressure
HumidityMeteo Station%Relative humidity
Missing or incorrect values are displayed as -999
Metereological data collected by the RV Zeeleeuw from 2003-03-21 07:10:06 to 2003-03-21 13:16:12
Time Latitude Longitude Speed Direction Temperature Pressure Humidity
2003-03-21 07:11 51°13.599 2°56.107 2.7 80 5.3 102480 79
2003-03-21 07:12 51°13.607 2°56.079 2.4 103 5.3 102480 79
2003-03-21 07:13 51°13.627 2°55.967 3.3 118 5.3 102490 79
2003-03-21 07:14 51°13.667 2°55.84 3.4 118 5.3 102480 79
2003-03-21 07:15 51°13.689 2°55.732 4.8 104 5.3 102490 79
2003-03-21 07:16 51°13.696 2°55.718 6.2 20 5.3 102480 80
2003-03-21 07:17 51°13.734 2°55.712 3.8 329 5.3 102480 80
2003-03-21 07:18 51°13.803 2°55.649 7.2 330 5.3 102480 80
2003-03-21 07:19 51°13.907 2°55.574 10.4 326 5.2 102470 79
2003-03-21 07:20 51°14.016 2°55.498 9.4 324 5.2 102470 79
2003-03-21 07:21 51°14.125 2°55.421 10 316 5.2 102470 79
2003-03-21 07:22 51°14.235 2°55.31 8 317 5.1 102470 79
2003-03-21 07:23 51°14.318 2°55.162 8.8 313 5.2 102470 79
2003-03-21 07:24 51°14.396 2°54.968 11.5 303 5.2 102460 79
2003-03-21 07:25 51°14.507 2°54.797 11.7 330 5.1 102460 79
2003-03-21 07:26 51°14.645 2°54.791 13.5 1 5.2 102460 79
2003-03-21 07:27 51°14.729 2°54.83 10.2 358 5.2 102450 78
2003-03-21 07:28 51°14.779 2°54.814 8.9 343 5.2 102470 78
2003-03-21 07:29 51°14.811 2°54.778 9.2 338 5.1 102470 79
2003-03-21 07:30 51°14.855 2°54.74 12.1 343 5.1 102460 79
2003-03-21 07:31 51°14.999 2°54.632 12.8 323 5.1 102450 79
2003-03-21 07:32 51°15.165 2°54.464 12.8 325 5.1 102450 79
2003-03-21 07:33 51°15.338 2°54.28 14 328 5.1 102440 80
2003-03-21 07:34 51°15.521 2°54.064 13.4 327 5 102450 80
2003-03-21 07:35 51°15.707 2°53.858 14.1 331 5 102450 80
2003-03-21 07:36 51°15.899 2°53.646 13.4 330 5 102450 80
2003-03-21 07:37 51°16.092 2°53.437 14 325 5 102440 80
2003-03-21 07:38 51°16.288 2°53.226 13.5 327 5 102450 80
2003-03-21 07:39 51°16.482 2°53.016 12.5 328 5 102460 80
2003-03-21 07:40 51°16.678 2°52.809 13.2 329 5 102450 81
2003-03-21 07:41 51°16.866 2°52.618 13.3 335 5 102450 80
2003-03-21 07:42 51°17.058 2°52.435 13.2 331 4.9 102450 80
2003-03-21 07:43 51°17.263 2°52.269 11.8 332 4.9 102470 81
2003-03-21 07:44 51°17.479 2°52.176 13.6 333 4.9 102450 82
2003-03-21 07:45 51°17.695 2°52.131 14.6 330 5 102450 82
2003-03-21 07:46 51°17.912 2°52.073 14 324 5.1 102450 82
2003-03-21 07:47 51°18.093 2°51.855 12.4 304 5.1 102440 81
2003-03-21 07:48 51°18.2 2°51.507 7 286 5.2 102460 81
2003-03-21 07:49 51°18.22 2°51.111 7.5 282 5.2 102460 81
2003-03-21 07:50 51°18.27 2°50.733 12.4 298 5.2 102460 81
2003-03-21 07:51 51°18.441 2°50.471 13.4 320 5.3 102440 81
2003-03-21 07:52 51°18.657 2°50.394 15.6 335 5.3 102440 81
2003-03-21 07:53 51°18.877 2°50.382 15.1 335 5.3 102440 81
2003-03-21 07:54 51°19.089 2°50.331 13 309 5.3 102430 82
2003-03-21 07:55 51°19.252 2°50.064 8.2 278 5.2 102450 82
2003-03-21 07:56 51°19.291 2°49.674 5.9 273 5.1 102480 83
2003-03-21 07:57 51°19.285 2°49.259 3.8 261 5.1 102480 83
2003-03-21 07:58 51°19.27 2°48.845 3.9 281 5.1 102490 83
2003-03-21 07:59 51°19.304 2°48.437 8.2 293 5.1 102480 83
2003-03-21 08:00 51°19.453 2°48.131 13.2 309 5.1 102460 84
2003-03-21 08:01 51°19.658 2°48.009 13.3 329 5.1 102450 83
2003-03-21 08:02 51°19.873 2°47.948 15.3 326 5.2 102440 82
2003-03-21 08:03 51°20.094 2°47.881 15.8 325 5.3 102450 82
2003-03-21 08:04 51°20.277 2°47.66 11.4 297 5.2 102450 82
2003-03-21 08:05 51°20.381 2°47.289 8.7 277 5.2 102470 82
2003-03-21 08:06 51°20.401 2°46.869 6.8 279 5.2 102480 82
2003-03-21 08:07 51°20.41 2°46.47 5.1 287 5.2 102480 82
2003-03-21 08:08 51°20.418 2°46.057 5.3 287 5.2 102480 82
2003-03-21 08:09 51°20.405 2°45.645 5.9 276 5.2 102490 82
2003-03-21 08:10 51°20.378 2°45.24 5.3 271 5.2 102490 82
2003-03-21 08:11 51°20.334 2°44.847 1.7 217 5.2 102490 82
2003-03-21 08:12 51°20.204 2°44.487 1.1 294 5.2 102490 83
2003-03-21 08:13 51°20.074 2°44.14 2 241 5.3 102500 83
2003-03-21 08:14 51°19.944 2°43.778 1.6 291 5.3 102500 83
2003-03-21 08:15 51°19.819 2°43.424 1.9 252 5.3 102500 83
2003-03-21 08:16 51°19.692 2°43.051 1.7 269 5.3 102500 83
2003-03-21 08:17 51°19.568 2°42.694 1.4 322 5.3 102500 83
2003-03-21 08:18 51°19.473 2°42.307 4.7 267 5.3 102500 83
2003-03-21 08:19 51°19.491 2°41.903 8 278 5.3 102490 83
2003-03-21 08:20 51°19.605 2°41.556 11.4 296 5.3 102480 83
2003-03-21 08:21 51°19.758 2°41.239 11.6 297 5.3 102470 83
2003-03-21 08:22 51°19.931 2°40.954 13.5 306 5.3 102460 82
2003-03-21 08:23 51°20.137 2°40.759 12.9 316 5.2 102450 82
2003-03-21 08:24 51°20.334 2°40.547 11.8 306 5.2 102460 82
2003-03-21 08:25 51°20.437 2°40.193 6.7 271 5.2 102490 82
2003-03-21 08:26 51°20.434 2°39.824 4.2 251 5.2 102510 82
2003-03-21 08:27 51°20.423 2°39.565 7.6 231 5.2 102520 83
2003-03-21 08:28 51°20.412 2°39.363 5.1 222 5.3 102520 83
2003-03-21 08:29 51°20.401 2°39.182 4.3 231 5.3 102520 83
2003-03-21 08:30 51°20.387 2°39.014 5.7 227 5.3 102500 83
2003-03-21 08:31 51°20.376 2°38.846 5.6 216 5.2 102500 82
2003-03-21 08:32 51°20.365 2°38.678 5.6 228 5.2 102500 82
2003-03-21 08:33 51°20.356 2°38.511 5 232 5.2 102510 82
2003-03-21 08:34 51°20.346 2°38.339 5.4 235 5.2 102500 82
2003-03-21 08:35 51°20.337 2°38.173 5.3 234 5.2 102500 82
2003-03-21 08:36 51°20.33 2°38.003 4.2 233 5.2 102500 82
2003-03-21 08:37 51°20.319 2°37.833 4.8 231 5.2 102500 82
2003-03-21 08:38 51°20.309 2°37.659 4.4 234 5.2 102500 82
2003-03-21 08:39 51°20.3 2°37.492 6 224 5.3 102510 82
2003-03-21 08:40 51°20.29 2°37.318 7.1 280 5.3 102510 82
2003-03-21 08:41 51°20.378 2°37.048 9.4 323 5.3 102490 82
2003-03-21 08:42 51°20.534 2°36.747 10.7 320 5.3 102480 82
2003-03-21 08:43 51°20.682 2°36.449 10.5 314 5.3 102490 82
2003-03-21 08:44 51°20.763 2°36.07 7.7 305 5.3 102490 81
2003-03-21 08:45 51°20.81 2°35.659 7.5 307 5.2 102500 81
2003-03-21 08:46 51°20.835 2°35.261 6.7 302 5.3 102490 81
2003-03-21 08:47 51°20.763 2°34.855 4.4 293 5.3 102510 81
2003-03-21 08:48 51°20.679 2°34.462 4.3 295 5.3 102510 81
2003-03-21 08:49 51°20.599 2°34.062 5.4 296 5.4 102510 81
2003-03-21 08:50 51°20.523 2°33.66 5.1 293 5.3 102510 80
2003-03-21 08:51 51°20.446 2°33.26 4.8 290 5.4 102510 80
2003-03-21 08:52 51°20.372 2°32.852 5.9 298 5.4 102510 80
2003-03-21 08:53 51°20.264 2°32.453 3.5 293 5.3 102510 80
2003-03-21 08:54 51°20.085 2°32.144 2 348 5.4 102510 80
2003-03-21 08:55 51°19.853 2°31.972 3.4 46 5.4 102510 80
2003-03-21 08:56 51°19.609 2°31.908 5.3 41 5.5 102510 80
2003-03-21 08:57 51°19.376 2°31.984 6.8 44 5.6 102510 80
2003-03-21 08:58 51°19.144 2°32.088 7.7 51 5.7 102500 79
2003-03-21 08:59 51°18.911 2°32.182 7.5 317 5.7 102510 79
2003-03-21 09:00 51°18.678 2°32.269 7.7 46 5.8 102500 79
2003-03-21 09:01 51°18.444 2°32.35 7 46 5.8 102510 79
2003-03-21 09:02 51°18.214 2°32.43 6.7 47 5.9 102500 79
2003-03-21 09:03 51°17.979 2°32.499 7.5 132 6 102500 79
2003-03-21 09:04 51°17.748 2°32.567 8.4 318 6 102500 79
2003-03-21 09:05 51°17.505 2°32.536 5.3 46 6 102510 79
2003-03-21 09:06 51°17.28 2°32.352 2.1 37 6.1 102520 79
2003-03-21 09:07 51°17.121 2°32.036 1.4 347 6.1 102510 79
2003-03-21 09:08 51°16.989 2°31.683 1.9 317 6.1 102520 79
2003-03-21 09:09 51°16.863 2°31.322 1.5 295 5.9 102520 78
2003-03-21 09:10 51°16.764 2°30.941 3.4 298 5.9 102510 79
2003-03-21 09:11 51°16.673 2°30.546 2.9 292 5.8 102510 80
2003-03-21 09:12 51°16.58 2°30.147 2.3 299 5.7 102510 80
2003-03-21 09:13 51°16.485 2°29.749 4.2 280 5.6 102510 80
2003-03-21 09:14 51°16.388 2°29.351 3.9 291 5.6 102510 80
2003-03-21 09:15 51°16.291 2°28.95 4.2 296 5.6 102520 80
2003-03-21 09:16 51°16.152 2°28.592 1.8 9 5.6 102520 80
2003-03-21 09:17 51°15.927 2°28.388 4.3 51 5.7 102520 81
2003-03-21 09:18 51°15.68 2°28.333 6.5 317 5.9 102520 81
2003-03-21 09:19 51°15.429 2°28.34 6.7 36 6 102510 80
2003-03-21 09:20 51°15.179 2°28.357 6.1 134 6.1 102510 79
2003-03-21 09:21 51°14.929 2°28.367 8.2 318 6.1 102520 79
2003-03-21 09:22 51°14.681 2°28.382 7.3 44 6.1 102510 79
2003-03-21 09:23 51°14.43 2°28.373 5 57 6.1 102510 78
2003-03-21 09:24 51°14.197 2°28.184 1.7 24 6.1 102520 78
2003-03-21 09:25 51°14.005 2°27.898 1.1 322 6.1 102520 78
2003-03-21 09:26 51°13.846 2°27.558 1.6 318 6 102530 77
2003-03-21 09:27 51°13.693 2°27.213 1 354 5.9 102520 77
2003-03-21 09:28 51°13.55 2°26.855 1.3 301 5.9 102530 78
2003-03-21 09:29 51°13.414 2°26.487 1.5 326 5.8 102530 78
2003-03-21 09:30 51°13.279 2°26.122 1.4 310 5.9 102520 78
2003-03-21 09:31 51°13.144 2°25.756 1.5 325 5.9 102520 79
2003-03-21 09:32 51°12.978 2°25.426 2.3 29 6 102530 79
2003-03-21 09:33 51°12.764 2°25.172 2.7 132 6.1 102520 79
2003-03-21 09:34 51°12.521 2°25.012 5.9 51 6.3 102520 79
2003-03-21 09:35 51°12.265 2°24.958 5.5 55 6.3 102510 78
2003-03-21 09:36 51°12.01 2°24.967 6 45 6.3 102510 77
2003-03-21 09:37 51°11.756 2°24.977 6.9 45 6.3 102510 77
2003-03-21 09:38 51°11.505 2°24.986 7.4 50 6.2 102510 77
2003-03-21 09:39 51°11.256 2°24.99 7.5 317 6.2 102510 77
2003-03-21 09:40 51°11.008 2°24.998 7.8 132 6.1 102510 78
2003-03-21 09:41 51°10.794 2°25.122 8.7 39 6.1 102500 77
2003-03-21 09:42 51°10.646 2°25.366 10.6 20 6.1 102500 78
2003-03-21 09:43 51°10.635 2°25.676 12.1 358 6 102490 79
2003-03-21 09:44 51°10.709 2°25.967 12.6   5.9 102490 79
2003-03-21 09:45 51°10.778 2°26.259 13 3 5.8 102500 79
2003-03-21 09:46 51°10.841 2°26.559 13.5 2 5.8 102490 80
2003-03-21 09:47 51°10.904 2°26.861 13.2 5 5.7 102500 80
2003-03-21 09:48 51°10.96 2°27.164 12.1 3 5.6 102490 80
2003-03-21 09:49 51°11.013 2°27.468 12.2 5 5.6 102490 80
2003-03-21 09:50 51°11.063 2°27.772 11.3 5 5.5 102500 81
2003-03-21 09:51 51°11.111 2°28.076 12 4 5.5 102500 81
2003-03-21 09:52 51°11.162 2°28.381 10.7 5 5.4 102490 81
2003-03-21 09:53 51°11.209 2°28.689 12.2 11 5.5 102490 81
2003-03-21 09:54 51°11.255 2°28.996 12.2 360 5.5 102490 81
2003-03-21 09:55 51°11.296 2°29.303 12.8 6 5.5 102490 81
2003-03-21 09:56 51°11.342 2°29.609 13.6 5 5.5 102490 80
2003-03-21 09:57 51°11.411 2°29.903 13.2 6 5.4 102490 80
2003-03-21 09:58 51°11.503 2°30.173 13.9 353 5.4 102490 80
2003-03-21 09:59 51°11.663 2°30.351 13.9 349 5.3 102480 79
2003-03-21 10:00 51°11.828 2°30.516 13 350 5.3 102480 79
2003-03-21 10:01 51°11.994 2°30.68 13.4 343 5.3 102470 80
2003-03-21 10:02 51°12.158 2°30.845 13.4 348 5.2 102470 80
2003-03-21 10:03 51°12.332 2°30.98 12.1 343 5.2 102470 80
2003-03-21 10:04 51°12.5 2°31.128 12.7 354 5.2 102470 80
2003-03-21 10:05 51°12.612 2°31.373 13.2 357 5.2 102470 80
2003-03-21 10:06 51°12.674 2°31.663 12.2 9 5.2 102480 80
2003-03-21 10:07 51°12.706 2°31.968 12.1 6 5.2 102470 81
2003-03-21 10:08 51°12.744 2°32.276 12.3 4 5.2 102480 81
2003-03-21 10:09 51°12.786 2°32.586 13 2 5.2 102480 80
2003-03-21 10:10 51°12.831 2°32.898 13.2   5.2 102480 80
2003-03-21 10:11 51°12.93 2°33.175 13.3 352 5.1 102480 79
2003-03-21 10:12 51°13.096 2°33.354 12.5 342 5.1 102470 80
2003-03-21 10:13 51°13.275 2°33.51 12.7 340 5 102470 80
2003-03-21 10:14 51°13.47 2°33.558 11.6 325 5 102460 80
2003-03-21 10:15 51°13.679 2°33.492 11.1 324 4.9 102470 80
2003-03-21 10:16 51°13.888 2°33.422 11.9 322 4.8 102460 80
2003-03-21 10:17 51°14.093 2°33.348 11.6 321 4.7 102460 80
2003-03-21 10:18 51°14.297 2°33.309 12.1 333 4.7 102460 80
2003-03-21 10:19 51°14.495 2°33.341 13.3 334 4.8 102470 81
2003-03-21 10:20 51°14.673 2°33.456 13 342 4.8 102460 81
2003-03-21 10:21 51°14.848 2°33.589 13.5 338 4.9 102470 81
2003-03-21 10:22 51°15.016 2°33.732 12.8 343 4.9 102460 81
2003-03-21 10:23 51°15.173 2°33.909 12.8 342 5 102470 80
2003-03-21 10:24 51°15.321 2°34.099 13.2 344 5 102470 80
2003-03-21 10:25 51°15.424 2°34.344 13.1 358 5 102490 80
2003-03-21 10:26 51°15.447 2°34.649 13.5 9 4.9 102480 79
2003-03-21 10:27 51°15.379 2°34.949 12.2 19 5 102470 80
2003-03-21 10:28 51°15.2 2°35.157 8.8 39 5 102480 80
2003-03-21 10:29 51°14.963 2°35.224 8.3 49 5 102480 80
2003-03-21 10:30 51°14.726 2°35.268 8.1 43 5.1 102490 80
2003-03-21 10:31 51°14.488 2°35.334 7.7 40 5.1 102480 80
2003-03-21 10:32 51°14.256 2°35.409 8.6 131 5.2 102480 80
2003-03-21 10:33 51°14.02 2°35.479 8.1 45 5.2 102490 80
2003-03-21 10:34 51°13.82 2°35.646 10.3 33 5.2 102480 80
2003-03-21 10:35 51°13.679 2°35.902 11.9 18 5.2 102460 79
2003-03-21 10:36 51°13.66 2°36.219 13.2 12 5.2 102460 80
2003-03-21 10:37 51°13.713 2°36.517 13 2 5.2 102460 80
2003-03-21 10:38 51°13.814 2°36.791 13.7 359 5.2 102470 80
2003-03-21 10:39 51°13.926 2°37.063 13.1 354 5.2 102460 80
2003-03-21 10:40 51°14.03 2°37.334 13.5 1 5.2 102470 80
2003-03-21 10:41 51°14.093 2°37.633 11.7 7 5.2 102470 80
2003-03-21 10:42 51°14.123 2°37.949 13.1 6 5.3 102470 80
2003-03-21 10:43 51°14.15 2°38.272 13 8 5.3 102470 80
2003-03-21 10:44 51°14.147 2°38.606 12.5 14 5.3 102470 80
2003-03-21 10:45 51°14.093 2°38.935 11.6 18 5.4 102470 80
2003-03-21 10:46 51°13.932 2°39.171 7.4 38 5.4 102470 80
2003-03-21 10:47 51°13.706 2°39.08 3.2 41 5.5 102490 80
2003-03-21 10:48 51°13.49 2°38.893 3.4 33 5.5 102490 80
2003-03-21 10:49 51°13.278 2°38.685 2.1 32 5.6 102490 80
2003-03-21 10:50 51°13.064 2°38.474 2.7 34 5.7 102500 80
2003-03-21 10:51 51°12.85 2°38.262 2.7 30 5.8 102490 80
2003-03-21 10:52 51°12.636 2°38.049 2.5 27 5.9 102490 79
2003-03-21 10:53 51°12.42 2°37.834 2.1 36 5.9 102490 79
2003-03-21 10:54 51°12.203 2°37.619 2.1 19 5.9 102490 78
2003-03-21 10:55 51°11.987 2°37.404 2.8 20 6 102490 79
2003-03-21 10:56 51°11.772 2°37.19 2.5 28 6 102490 79
2003-03-21 10:57 51°11.557 2°36.978 2.1 22 6.1 102490 78
2003-03-21 10:58 51°11.341 2°36.765 2.6 26 6.1 102490 78
2003-03-21 10:59 51°11.13 2°36.557 2.7 22 6.2 102490 78
2003-03-21 11:00 51°10.916 2°36.348 2.3 29 6.2 102490 77
2003-03-21 11:01 51°10.703 2°36.136 1.5 29 6.2 102490 77
2003-03-21 11:02 51°10.489 2°35.93 1.3 11 6.3 102490 76
2003-03-21 11:03 51°10.276 2°35.725 2 6 6.3 102490 76
2003-03-21 11:04 51°10.04 2°35.64 5.5 39 6.3 102480 76
2003-03-21 11:05 51°9.81 2°35.729 7.9 44 6.3 102470 76
2003-03-21 11:06 51°9.601 2°35.891 6.9 41 6.3 102470 77
2003-03-21 11:07 51°9.397 2°36.058 8.2 41 6.3 102460 77
2003-03-21 11:08 51°9.278 2°36.335 9.4 29 6.3 102450 78
2003-03-21 11:09 51°9.296 2°36.655 12.1 10 6.2 102440 78
2003-03-21 11:10 51°9.414 2°36.924 12.8 2 6.2 102460 79
2003-03-21 11:11 51°9.561 2°37.148 13.2 357 6.1 102450 79
2003-03-21 11:12 51°9.72 2°37.365 13.3 360 6 102450 78
2003-03-21 11:13 51°9.875 2°37.583 14.2 357 6 102450 79
2003-03-21 11:14 51°10.036 2°37.798 14.1 359 6 102440 79
2003-03-21 11:15 51°10.195 2°38.009 14.3 357 5.9 102460 80
2003-03-21 11:16 51°10.311 2°38.278 12.5 13 5.9 102460 80
2003-03-21 11:17 51°10.244 2°38.577 9.9 37 5.9 102450 80
2003-03-21 11:18 51°10.117 2°38.86 10.6 38 6 102450 80
2003-03-21 11:19 51°9.998 2°39.155 10.9 39 6 102450 80
2003-03-21 11:20 51°9.877 2°39.446 10.8 36 6 102450 80
2003-03-21 11:21 51°9.76 2°39.74 10.6 29 6 102450 80
2003-03-21 11:22 51°9.795 2°40.042 14.5 5 6 102440 80
2003-03-21 11:23 51°9.964 2°40.236 14.3 355 6 102440 79
2003-03-21 11:24 51°10.139 2°40.43 14.7 354 6 102440 80
2003-03-21 11:25 51°10.316 2°40.618 13.4 354 5.9 102440 79
2003-03-21 11:26 51°10.492 2°40.81 13.6 352 5.9 102440 80
2003-03-21 11:27 51°10.663 2°41.01 15.2 355 5.9 102440 80
2003-03-21 11:28 51°10.837 2°41.202 14.7 357 5.9 102430 80
2003-03-21 11:29 51°10.914 2°41.502 13.6 23 5.9 102430 80
2003-03-21 11:30 51°10.881 2°41.837 13.4 29 5.9 102430 80
2003-03-21 11:31 51°10.825 2°42.161 12.7 32 5.9 102420 80
2003-03-21 11:32 51°10.781 2°42.489 14.8 31 5.9 102420 80
2003-03-21 11:33 51°10.725 2°42.815 13.3 35 5.9 102430 80
2003-03-21 11:34 51°10.641 2°43.13 14.6 33 5.8 102410 79
2003-03-21 11:35 51°10.589 2°43.452 15.4 20 5.8 102420 79
2003-03-21 11:36 51°10.649 2°43.764 15 7 5.9 102430 79
2003-03-21 11:37 51°10.758 2°44.048 16.4 5 5.9 102430 79
2003-03-21 11:38 51°10.861 2°44.347 15.9 2 5.9 102440 79
2003-03-21 11:39 51°10.964 2°44.642 15.4 3 5.9 102430 78
2003-03-21 11:40 51°11.064 2°44.936 15.3 6 6 102420 78
2003-03-21 11:41 51°11.164 2°45.229 15.6 7 6 102430 78
2003-03-21 11:42 51°11.266 2°45.52 14.7 4 6 102430 77
2003-03-21 11:43 51°11.367 2°45.809 15.5 7 6 102430 77
2003-03-21 11:44 51°11.467 2°46.099 15.6 8 6 102430 77
2003-03-21 11:45 51°11.565 2°46.382 15.3 4 6.1 102430 77
2003-03-21 11:46 51°11.665 2°46.676 14.9 8 6 102410 77
2003-03-21 11:47 51°11.764 2°46.968 15.7 6 6.1 102420 77
2003-03-21 11:48 51°11.863 2°47.263 14.3 3 6 102430 76
2003-03-21 11:49 51°11.965 2°47.56 15.5 2 6 102430 76
2003-03-21 11:50 51°12.064 2°47.848 15.6 4 6.1 102440 77
2003-03-21 11:51 51°12.164 2°48.143 16.1 7 6 102430 76
2003-03-21 11:52 51°12.263 2°48.439 16 3 6 102420 76
2003-03-21 11:53 51°12.37 2°48.733 15.8 1 6 102420 76
2003-03-21 11:54 51°12.479 2°49.026 16.3 8 6 102420 76
2003-03-21 11:55 51°12.588 2°49.318 15.9 2 6 102430 77
2003-03-21 11:56 51°12.694 2°49.61 17 3 6 102440 77
2003-03-21 11:57 51°12.801 2°49.896 15.9 2 6 102420 76
2003-03-21 11:58 51°12.909 2°50.181 16.3 360 6 102430 76
2003-03-21 11:59 51°13.016 2°50.469 15.9 4 6 102420 76
2003-03-21 12:00 51°13.117 2°50.742 16.7 3 6 102430 77
2003-03-21 12:01 51°13.224 2°51.025 16 4 6 102420 76
2003-03-21 12:02 51°13.329 2°51.308 16.5 4 6 102420 77
2003-03-21 12:03 51°13.346 2°51.528 11 69 6 102420 77
2003-03-21 12:04 51°13.265 2°51.537 5.9 147 6 102470 76
2003-03-21 12:05 51°13.216 2°51.455 8.6 219 6 102450 77
2003-03-21 12:06 51°13.209 2°51.358 8.1 261 6 102440 77
2003-03-21 12:07 51°13.228 2°51.288 9.2 279 6 102440 77
2003-03-21 12:08 51°13.256 2°51.216 10.2 274 5.9 102440 78
2003-03-21 12:09 51°13.282 2°51.138 10.2 268 5.9 102440 78
2003-03-21 12:10 51°13.292 2°51.082 9.9 270 5.8 102440 77
2003-03-21 12:11 51°13.296 2°51.04 9.6 271 5.8 102440 77
2003-03-21 12:12 51°13.301 2°50.993 9.2 249 5.9 102450 78
2003-03-21 12:13 51°13.302 2°50.925 8 231 5.9 102450 77
2003-03-21 12:14 51°13.295 2°50.873 8.1 238 5.9 102440 77
2003-03-21 12:15 51°13.291 2°50.831 8.9 248 5.9 102440 77
2003-03-21 12:16 51°13.281 2°50.742 4.2 184 5.9 102450 76
2003-03-21 12:17 51°13.209 2°50.728 8.1 80 5.9 102460 76
2003-03-21 12:18 51°13.173 2°50.791 9.8 58 6 102450 76
2003-03-21 12:19 51°13.163 2°50.884 11.1 19 6.2 102430 76
2003-03-21 12:20 51°13.173 2°50.969 10.2 18 6.2 102420 76
2003-03-21 12:21 51°13.176 2°51.007 10.4 7 6.2 102420 76
2003-03-21 12:22 51°13.172 2°51.03 8.7 3 6.3 102430 75
2003-03-21 12:23 51°13.17 2°51.039 8.2 359 6.3 102440 75
2003-03-21 12:24 51°13.173 2°51.053 8.9 355 6.3 102440 76
2003-03-21 12:25 51°13.174 2°51.056 9.2 356 6.3 102440 76
2003-03-21 12:26 51°13.168 2°51.057 7.3 357 6.2 102450 75
2003-03-21 12:27 51°13.159 2°51.054 8.2 8 6.2 102440 76
2003-03-21 12:28 51°13.146 2°51.046 9.9 34 6.3 102440 76
2003-03-21 12:29 51°13.147 2°51.088 10.2 356 6.3 102440 76
2003-03-21 12:30 51°13.223 2°51.153 12.5 315 6.3 102430 76
2003-03-21 12:31 51°13.28 2°51.114 10.1 295 6.2 102430 76
2003-03-21 12:32 51°13.317 2°51.081 9.4 299 6.1 102430 76
2003-03-21 12:33 51°13.339 2°51.056 8.9 285 6 102430 77
2003-03-21 12:34 51°13.353 2°51.037 8.4 293 6 102430 78
2003-03-21 12:35 51°13.367 2°51.023 8.7 298 5.9 102440 78
2003-03-21 12:36 51°13.377 2°51.009 9.4 292 5.9 102430 78
2003-03-21 12:37 51°13.389 2°50.999 7.6 286 5.9 102430 78
2003-03-21 12:38 51°13.397 2°50.989 7.5 286 5.9 102430 78
2003-03-21 12:39 51°13.403 2°50.983 7.2 288 5.9 102430 78
2003-03-21 12:40 51°13.406 2°50.981 7.2 287 6 102430 79
2003-03-21 12:41 51°13.405 2°50.98 10 275 5.9 102430 78
2003-03-21 12:42 51°13.403 2°50.983 8.1 265 5.9 102430 77
2003-03-21 12:43 51°13.399 2°50.983 9.4 250 6 102430 78
2003-03-21 12:44 51°13.395 2°50.988 10 241 6 102440 77
2003-03-21 12:45 51°13.392 2°50.995 8.6 237 6 102430 77
2003-03-21 12:46 51°13.389 2°51 9 241 6 102430 77
2003-03-21 12:47 51°13.387 2°51.006 8.6 241 6.1 102430 79
2003-03-21 12:48 51°13.385 2°51.009 8.5 242 6 102420 79
2003-03-21 12:49 51°13.383 2°51.019 9.5 244 6.1 102430 79
2003-03-21 12:50 51°13.382 2°51.025 8.5 247 6 102430 79
2003-03-21 12:51 51°13.382 2°51.033 8.9 248 6 102430 79
2003-03-21 12:52 51°13.381 2°51.043 8.4 256 6 102420 79
2003-03-21 12:53 51°13.383 2°51.052 9.8 265 6.1 102420 80
2003-03-21 12:54 51°13.39 2°51.059 9.3 264 6 102430 80
2003-03-21 12:55 51°13.398 2°51.066 9.1 269 6 102420 80
2003-03-21 12:56 51°13.411 2°51.075 9.9 276 6 102420 81
2003-03-21 12:57 51°13.423 2°51.087 9.9 275 5.9 102420 81
2003-03-21 12:58 51°13.436 2°51.099 10.8 272 5.9 102410 81
2003-03-21 12:59 51°13.448 2°51.11 10.2 265 5.9 102410 81
2003-03-21 13:00 51°13.459 2°51.123 8.2 254 5.9 102400 81
2003-03-21 13:01 51°13.471 2°51.136 9.5 255 5.9 102410 82
2003-03-21 13:02 51°13.482 2°51.147 8.6 253 5.9 102410 82
2003-03-21 13:03 51°13.533 2°51.115 12.3 312 5.9 102400 82
2003-03-21 13:04 51°13.667 2°51.215 16.4 26 5.8 102400 81
2003-03-21 13:05 51°13.726 2°51.572 17.1 23 5.9 102360 81
2003-03-21 13:06 51°13.817 2°51.932 17.3 10 6 102380 81
2003-03-21 13:07 51°13.916 2°52.292 17.6 18 6.1 102370 80
2003-03-21 13:08 51°14.012 2°52.656 17.8 20 6.1 102380 80
2003-03-21 13:09 51°14.11 2°53.024 17 24 6.1 102380 81
2003-03-21 13:10 51°14.21 2°53.387 16.3 18 6.1 102380 81
2003-03-21 13:11 51°14.304 2°53.749 14.7 19 6 102350 81
2003-03-21 13:12 51°14.337 2°54.122 15.2 29 6 102350 81
2003-03-21 13:13 51°14.379 2°54.498 14.9 28 6.1 102360 81
2003-03-21 13:14 51°14.38 2°54.857 13 36 6 102340 81
2003-03-21 13:15 51°14.308 2°55.173 9.8 55 6.1 102360 81
2003-03-21 13:16 51°14.209 2°55.34 6.9 96 6.1 102400 81